createdAt,value
2019-01-11T00:00:22.725Z,83.59
2019-01-11T00:01:03.107Z,83.78
2019-01-11T00:01:43.474Z,83.78
2019-01-11T00:02:24.019Z,84.44
2019-01-11T00:03:04.342Z,83.78
2019-01-11T00:03:44.702Z,84.06
2019-01-11T00:04:25.130Z,83.59
2019-01-11T00:05:05.568Z,83.2
2019-01-11T00:05:45.908Z,83.11
2019-01-11T00:06:26.292Z,82.82
2019-01-11T00:07:06.713Z,82.64
2019-01-11T00:07:47.059Z,82.16
2019-01-11T00:08:27.541Z,82.26
2019-01-11T00:09:07.913Z,83.2
2019-01-11T00:09:48.288Z,84.25
2019-01-11T00:10:28.664Z,83.49
2019-01-11T00:11:09.085Z,82.26
2019-01-11T00:11:49.467Z,83.3
2019-01-11T00:12:29.825Z,83.59
2019-01-11T00:13:10.295Z,83.59
2019-01-11T00:13:50.635Z,82.26
2019-01-11T00:14:31.099Z,82.45
2019-01-11T00:15:11.425Z,83.2
2019-01-11T00:15:51.884Z,82.35
2019-01-11T00:16:32.271Z,82.64
2019-01-11T00:17:12.668Z,82.82
2019-01-11T00:17:53.044Z,83.11
2019-01-11T00:18:33.417Z,83.11
2019-01-11T00:19:13.819Z,83.49
2019-01-11T00:19:54.230Z,83.87
2019-01-11T00:20:34.662Z,84.06
2019-01-11T00:21:15.002Z,84.25
2019-01-11T00:21:55.419Z,83.59
2019-01-11T00:22:35.802Z,83.87
2019-01-11T00:23:16.245Z,83.97
2019-01-11T00:23:56.684Z,83.87
2019-01-11T00:24:37.034Z,84.25
2019-01-11T00:25:17.476Z,84.91
2019-01-11T00:25:57.840Z,84.63
2019-01-11T00:26:38.224Z,83.87
2019-01-11T00:27:18.620Z,83.87
2019-01-11T00:27:58.991Z,84.06
2019-01-11T00:28:39.332Z,84.34
2019-01-11T00:29:19.761Z,83.87
2019-01-11T00:30:00.222Z,83.78
2019-01-11T00:30:40.563Z,84.06
2019-01-11T00:31:20.951Z,83.78
2019-01-11T00:32:01.376Z,83.78
2019-01-11T00:32:41.753Z,83.49
2019-01-11T00:33:22.107Z,83.49
2019-01-11T00:34:02.565Z,83.2
2019-01-11T00:34:42.888Z,83.2
2019-01-11T00:35:23.333Z,83.2
2019-01-11T00:36:03.650Z,83.11
2019-01-11T00:36:44.111Z,83.68
2019-01-11T00:37:24.482Z,82.45
2019-01-11T00:38:04.846Z,82.54
2019-01-11T00:38:45.312Z,83.01
2019-01-11T00:39:25.691Z,83.87
2019-01-11T00:40:06.051Z,84.16
2019-01-11T00:40:46.432Z,83.87
2019-01-11T00:41:26.752Z,84.25
2019-01-11T00:42:07.152Z,84.16
2019-01-11T00:42:47.600Z,85.11
2019-01-11T00:43:28.010Z,85.01
2019-01-11T00:44:08.401Z,84.91
2019-01-11T00:44:48.798Z,84.91
2019-01-11T00:45:29.212Z,84.91
2019-01-11T00:46:09.551Z,84.91
2019-01-11T00:46:49.981Z,85.01
2019-01-11T00:47:30.354Z,84.72
2019-01-11T00:48:10.778Z,84.91
2019-01-11T00:48:51.828Z,85.01
2019-01-11T00:49:31.567Z,85.2
2019-01-11T00:50:11.929Z,84.82
2019-01-11T00:50:52.345Z,84.91
2019-01-11T00:51:32.727Z,84.63
2019-01-11T00:52:13.071Z,83.87
2019-01-11T00:52:53.556Z,84.59
2019-01-11T00:53:33.881Z,84.97
2019-01-11T00:54:14.393Z,84.78
2019-01-11T00:54:54.745Z,85.06
2019-01-11T00:55:35.146Z,85.16
2019-01-11T00:56:15.572Z,85.72
2019-01-11T00:56:55.906Z,86.11
2019-01-11T00:57:36.293Z,86.39
2019-01-11T00:58:16.784Z,86.77
2019-01-11T00:58:57.150Z,87.53
2019-01-11T00:59:37.568Z,87.53
2019-01-11T01:00:17.942Z,87.15
2019-01-11T01:00:58.258Z,86.77
2019-01-11T01:01:38.737Z,87.62
2019-01-11T01:02:19.111Z,87.24
2019-01-11T01:02:59.525Z,86.96
2019-01-11T01:03:39.915Z,86.96
2019-01-11T01:04:20.358Z,87.62
2019-01-11T01:05:00.715Z,87.53
2019-01-11T01:05:41.108Z,87.62
2019-01-11T01:06:21.548Z,87.91
2019-01-11T01:07:01.903Z,88.01
2019-01-11T01:07:42.369Z,88.29
2019-01-11T01:08:22.666Z,87.82
2019-01-11T01:09:03.108Z,87.43
2019-01-11T01:09:43.518Z,87.43
2019-01-11T01:10:23.892Z,87.91
2019-01-11T01:11:04.289Z,88.2
2019-01-11T01:11:44.640Z,88.01
2019-01-11T01:12:25.168Z,88.39
2019-01-11T01:13:05.493Z,88.67
2019-01-11T01:13:45.934Z,89.24
2019-01-11T01:14:26.282Z,88.95
2019-01-11T01:15:06.672Z,89.62
2019-01-11T01:15:47.058Z,89.81
2019-01-11T01:16:27.496Z,88.76
2019-01-11T01:17:07.843Z,88.57
2019-01-11T01:17:48.292Z,88.57
2019-01-11T01:18:28.708Z,88.57
2019-01-11T01:19:09.096Z,88.95
2019-01-11T01:19:49.431Z,89.33
2019-01-11T01:20:29.848Z,89.48
2019-01-11T01:21:10.223Z,89.81
2019-01-11T01:21:50.583Z,90.24
2019-01-11T01:22:30.999Z,89.9
2019-01-11T01:23:11.417Z,90
2019-01-11T01:23:51.724Z,90.09
2019-01-11T01:24:32.186Z,90.57
2019-01-11T01:25:12.543Z,90.57
2019-01-11T01:25:52.929Z,90.57
2019-01-11T01:26:33.279Z,90.33
2019-01-11T01:27:13.658Z,90.52
2019-01-11T01:27:54.085Z,90.62
2019-01-11T01:28:34.455Z,91
2019-01-11T01:29:14.770Z,90.76
2019-01-11T01:29:55.290Z,90.76
2019-01-11T01:30:35.678Z,90.05
2019-01-11T01:31:16.090Z,90.33
2019-01-11T01:31:56.502Z,90.33
2019-01-11T01:32:36.938Z,90.52
2019-01-11T01:33:17.305Z,90.81
2019-01-11T01:33:57.656Z,90.05
2019-01-11T01:34:37.988Z,91.09
2019-01-11T01:35:18.415Z,91.38
2019-01-11T01:35:58.831Z,91.38
2019-01-11T01:36:39.183Z,91.19
2019-01-11T01:37:19.557Z,90.81
2019-01-11T01:37:59.974Z,90.05
2019-01-11T01:38:40.395Z,90.33
2019-01-11T01:39:20.703Z,90.9
2019-01-11T01:40:01.135Z,91.28
2019-01-11T01:40:41.554Z,91.09
2019-01-11T01:41:21.958Z,90.71
2019-01-11T01:42:02.344Z,90.71
2019-01-11T01:42:42.729Z,90.24
2019-01-11T01:43:23.090Z,91.19
2019-01-11T01:44:03.485Z,90.81
2019-01-11T01:44:43.921Z,90.33
2019-01-11T01:45:24.304Z,90.33
2019-01-11T01:46:04.748Z,90.28
2019-01-11T01:46:45.169Z,90.33
2019-01-11T01:47:25.538Z,89.81
2019-01-11T01:48:05.943Z,90.43
2019-01-11T01:48:46.352Z,90.09
2019-01-11T01:49:26.843Z,89.62
2019-01-11T01:50:07.273Z,88.29
2019-01-11T01:50:47.638Z,89.05
2019-01-11T01:51:28.057Z,89.05
2019-01-11T01:52:08.472Z,89.24
2019-01-11T01:52:48.791Z,88.95
2019-01-11T01:53:29.179Z,89.05
2019-01-11T01:54:09.578Z,88.86
2019-01-11T01:54:51.002Z,88.95
2019-01-11T01:55:30.329Z,89.14
2019-01-11T01:56:10.780Z,89.72
2019-01-11T01:56:51.116Z,88.86
2019-01-11T01:57:31.554Z,88.39
2019-01-11T01:58:11.953Z,88.29
2019-01-11T01:58:52.340Z,87.53
2019-01-11T01:59:32.745Z,88.01
2019-01-11T02:00:13.082Z,88.29
2019-01-11T02:00:53.442Z,88.57
2019-01-11T02:01:33.892Z,88.2
2019-01-11T02:02:14.356Z,88.48
2019-01-11T02:02:54.750Z,87.72
2019-01-11T02:03:35.184Z,88.1
2019-01-11T02:04:15.641Z,88.39
2019-01-11T02:04:55.972Z,88.86
2019-01-11T02:05:36.334Z,89.95
2019-01-11T02:06:16.907Z,89.62
2019-01-11T02:06:57.339Z,88.53
2019-01-11T02:07:37.675Z,89.53
2019-01-11T02:08:18.171Z,89.05
2019-01-11T02:08:58.518Z,89
2019-01-11T02:09:38.997Z,89.72
2019-01-11T02:10:19.396Z,89.72
2019-01-11T02:10:59.674Z,90.19
2019-01-11T02:11:40.142Z,90.19
2019-01-11T02:12:20.578Z,89.81
2019-01-11T02:13:00.893Z,89.33
2019-01-11T02:13:41.315Z,88.57
2019-01-11T02:14:21.647Z,88.67
2019-01-11T02:15:02.047Z,88.29
2019-01-11T02:15:42.508Z,88.2
2019-01-11T02:16:22.903Z,87.91
2019-01-11T02:17:03.303Z,88.57
2019-01-11T02:17:43.647Z,88.39
2019-01-11T02:18:24.087Z,88.29
2019-01-11T02:19:04.440Z,88.39
2019-01-11T02:19:44.876Z,88.39
2019-01-11T02:20:25.267Z,88.76
2019-01-11T02:21:05.721Z,88.95
2019-01-11T02:21:46.075Z,89.62
2019-01-11T02:22:26.471Z,88.29
2019-01-11T02:23:06.917Z,88.39
2019-01-11T02:23:47.265Z,89.05
2019-01-11T02:24:27.715Z,89.05
2019-01-11T02:25:08.100Z,88.67
2019-01-11T02:25:48.449Z,88.76
2019-01-11T02:26:28.912Z,89.62
2019-01-11T02:27:09.242Z,88.95
2019-01-11T02:27:49.586Z,88.67
2019-01-11T02:28:30.108Z,88.95
2019-01-11T02:29:10.436Z,89.43
2019-01-11T02:29:50.946Z,89.81
2019-01-11T02:30:31.371Z,88.76
2019-01-11T02:31:11.666Z,89.24
2019-01-11T02:31:52.106Z,88.48
2019-01-11T02:32:32.482Z,88.2
2019-01-11T02:33:12.911Z,89.05
2019-01-11T02:33:53.282Z,89.33
2019-01-11T02:34:33.639Z,88.86
2019-01-11T02:35:14.183Z,88.86
2019-01-11T02:35:54.711Z,89.14
2019-01-11T02:36:35.117Z,88.57
2019-01-11T02:37:15.476Z,88.39
2019-01-11T02:37:55.989Z,89.33
2019-01-11T02:38:36.331Z,88.67
2019-01-11T02:39:16.761Z,89.43
2019-01-11T02:39:57.183Z,89.43
2019-01-11T02:40:37.549Z,88.67
2019-01-11T02:41:17.947Z,89.33
2019-01-11T02:41:58.334Z,89.33
2019-01-11T02:42:38.731Z,88.86
2019-01-11T02:43:19.117Z,88.86
2019-01-11T02:43:59.548Z,88.57
2019-01-11T02:44:40.016Z,89.33
2019-01-11T02:45:20.387Z,89.43
2019-01-11T02:46:00.777Z,89.53
2019-01-11T02:46:41.292Z,89.43
2019-01-11T02:47:21.765Z,89.33
2019-01-11T02:48:02.119Z,90.28
2019-01-11T02:48:42.462Z,90.38
2019-01-11T02:49:22.905Z,90.38
2019-01-11T02:50:03.239Z,90.09
2019-01-11T02:50:43.636Z,89.62
2019-01-11T02:51:24.058Z,89.62
2019-01-11T02:52:04.544Z,89.48
2019-01-11T02:52:45.012Z,89.86
2019-01-11T02:53:25.433Z,90.52
2019-01-11T02:54:05.747Z,90.24
2019-01-11T02:54:46.203Z,90.66
2019-01-11T02:55:26.663Z,90.43
2019-01-11T02:56:06.934Z,90.33
2019-01-11T02:56:47.408Z,90.71
2019-01-11T02:57:27.845Z,91.09
2019-01-11T02:58:08.280Z,91.33
2019-01-11T02:58:48.761Z,90.38
2019-01-11T02:59:29.187Z,91.33
2019-01-11T03:00:09.595Z,90.76
2019-01-11T03:00:49.973Z,90.38
2019-01-11T03:01:30.402Z,90.19
2019-01-11T03:02:10.788Z,90.33
2019-01-11T03:02:51.190Z,90.14
2019-01-11T03:03:31.582Z,91.04
2019-01-11T03:04:11.931Z,91.19
2019-01-11T03:04:52.452Z,90.38
2019-01-11T03:05:32.812Z,90.95
2019-01-11T03:06:13.177Z,91.61
2019-01-11T03:06:53.705Z,92.04
2019-01-11T03:07:34.054Z,91.14
2019-01-11T03:08:14.448Z,91.33
2019-01-11T03:08:54.849Z,91
2019-01-11T03:09:35.310Z,91.09
2019-01-11T03:10:15.623Z,91.24
2019-01-11T03:10:56.056Z,91.04
2019-01-11T03:11:36.470Z,91.04
2019-01-11T03:12:16.828Z,91.04
2019-01-11T03:12:57.208Z,90.76
2019-01-11T03:13:37.620Z,90.52
2019-01-11T03:14:18.051Z,90
2019-01-11T03:14:58.457Z,90.43
2019-01-11T03:15:38.854Z,91.09
2019-01-11T03:16:19.186Z,91.33
2019-01-11T03:16:59.648Z,90.33
2019-01-11T03:17:40.053Z,90.71
2019-01-11T03:18:20.424Z,90.19
2019-01-11T03:19:00.799Z,90.85
2019-01-11T03:19:47.463Z,90.9
2019-01-11T03:20:21.573Z,92.04
2019-01-11T03:21:01.939Z,91.66
2019-01-11T03:21:42.345Z,91.24
2019-01-11T03:22:22.763Z,91.04
2019-01-11T03:23:03.134Z,90.71
2019-01-11T03:23:43.443Z,90.62
2019-01-11T03:24:23.914Z,90.52
2019-01-11T03:25:07.227Z,91.56
2019-01-11T03:25:49.320Z,92.71
2019-01-11T03:26:29.970Z,92.52
2019-01-11T03:27:10.345Z,91.85
2019-01-11T03:27:50.961Z,92.75
2019-01-11T03:28:31.717Z,91.66
2019-01-11T03:29:12.105Z,91.85
2019-01-11T03:29:52.755Z,91.89
2019-01-11T03:30:33.633Z,91.75
2019-01-11T03:31:14.637Z,91.94
2019-01-11T03:31:55.065Z,90.9
2019-01-11T03:32:35.361Z,90.71
2019-01-11T03:33:16.270Z,91.66
2019-01-11T03:33:56.698Z,91.75
2019-01-11T03:34:37.552Z,92.04
2019-01-11T03:35:19.407Z,91.56
2019-01-11T03:35:59.861Z,91.8
2019-01-11T03:36:40.306Z,92.04
2019-01-11T03:37:20.816Z,91.24
2019-01-11T03:38:01.669Z,91.52
2019-01-11T03:38:43.204Z,91.42
2019-01-11T03:39:24.375Z,91.19
2019-01-11T03:40:09.873Z,91.89
2019-01-11T03:40:50.553Z,92.23
2019-01-11T03:41:31.307Z,91.56
2019-01-11T03:42:11.884Z,92.28
2019-01-11T03:42:53.116Z,91.85
2019-01-11T03:43:33.646Z,92.28
2019-01-11T03:44:14.524Z,91.89
2019-01-11T03:44:57.657Z,91.24
2019-01-11T03:45:38.913Z,92.28
2019-01-11T03:46:19.400Z,91.61
2019-01-11T03:47:00.103Z,90.95
2019-01-11T03:47:40.416Z,90.81
2019-01-11T03:48:22.551Z,90.19
2019-01-11T03:49:02.981Z,90.95
2019-01-11T03:49:43.384Z,90.28
2019-01-11T03:50:23.981Z,90.05
2019-01-11T03:51:04.549Z,91.19
2019-01-11T03:51:44.875Z,91.19
2019-01-11T03:52:25.569Z,91.75
2019-01-11T03:53:06.512Z,91.75
2019-01-11T03:53:47.069Z,92.52
2019-01-11T03:54:28.060Z,92.04
2019-01-11T03:55:10.564Z,92.61
2019-01-11T03:55:56.011Z,93.27
2019-01-11T03:56:41.790Z,93.46
2019-01-11T03:57:23.976Z,93.37
2019-01-11T03:58:05.506Z,93.18
2019-01-11T03:58:46.644Z,92.99
2019-01-11T03:59:28.247Z,92.8
2019-01-11T04:00:11.449Z,92.71
2019-01-11T04:00:55.008Z,93.94
2019-01-11T04:01:35.444Z,93.27
2019-01-11T04:02:16.388Z,93.6
2019-01-11T04:02:57.219Z,92.9
2019-01-11T04:03:38.044Z,92.94
2019-01-11T04:04:19.828Z,92.66
2019-01-11T04:05:00.583Z,93.04
2019-01-11T04:05:41.451Z,92.9
2019-01-11T04:06:23.123Z,93.08
2019-01-11T04:07:03.999Z,93.51
2019-01-11T04:07:45.317Z,93.7
2019-01-11T04:08:27.594Z,93.08
2019-01-11T04:09:08.183Z,93.65
2019-01-11T04:09:48.799Z,93.51
2019-01-11T04:10:29.460Z,93.41
2019-01-11T04:11:15.704Z,93.89
2019-01-11T04:11:58.218Z,94.37
2019-01-11T04:12:42.529Z,93.89
2019-01-11T04:13:30.279Z,93.32
2019-01-11T04:15:25.753Z,92.94
2019-01-11T04:18:07.000Z,91.24
2019-01-11T04:19:07.461Z,91.33
2019-01-11T04:20:02.037Z,92.09
2019-01-11T04:21:03.720Z,92.18
2019-01-11T05:07:42.927Z,99.63
2019-01-11T05:08:36.953Z,99.54
2019-01-11T05:09:31.907Z,98.78
2019-01-11T05:10:24.581Z,99.16
2019-01-11T05:11:18.791Z,99.54
2019-01-11T05:12:10.888Z,99.91
2019-01-11T05:13:03.918Z,99.99
2019-01-11T05:13:55.964Z,99.73
2019-01-11T05:14:49.922Z,99.54
2019-01-11T05:15:45.100Z,99.99
2019-01-11T05:16:40.035Z,99.99
2019-01-11T05:17:34.729Z,99.91
2019-01-11T05:18:26.859Z,99.35
2019-01-11T05:19:19.315Z,98.68
2019-01-11T05:20:16.517Z,98.78
2019-01-11T05:21:12.403Z,98.49
2019-01-11T05:22:08.636Z,99.35
2019-01-11T05:23:04.268Z,99.73
2019-01-11T05:23:57.261Z,99.73
2019-01-11T05:24:51.663Z,99.99
2019-01-11T05:25:46.349Z,99.99
2019-01-11T05:26:42.068Z,99.54
2019-01-11T05:27:35.845Z,98.21
2019-01-11T05:28:28.669Z,99.21
2019-01-11T05:29:22.080Z,98.92
2019-01-11T05:30:26.095Z,97.97
2019-01-11T05:31:20.893Z,97.78
2019-01-11T05:32:14.805Z,97.22
2019-01-11T05:33:09.156Z,96.55
2019-01-11T05:34:01.938Z,96.45
2019-01-11T05:34:58.597Z,95.89
2019-01-11T05:35:57.125Z,96.03
2019-01-11T05:36:52.289Z,95.94
2019-01-11T05:37:46.116Z,94.98
2019-01-11T05:38:42.511Z,94.13
2019-01-11T05:39:39.715Z,93.56
2019-01-11T05:40:40.487Z,93.56
2019-01-11T05:41:39.032Z,93.75
2019-01-11T05:42:34.350Z,93.46
2019-01-11T05:43:26.839Z,93.27
2019-01-11T05:44:18.662Z,93.94
2019-01-11T05:45:14.719Z,93.56
2019-01-11T05:46:11.166Z,94.42
2019-01-11T05:47:06.184Z,94.51
2019-01-11T05:49:42.500Z,91.94
2019-01-11T05:50:53.679Z,92.42
2019-01-11T05:51:52.949Z,93.18
2019-01-11T05:52:53.498Z,92.99
2019-01-11T05:53:49.347Z,92.8
2019-01-11T05:54:47.180Z,93.75
2019-01-11T05:58:39.388Z,93.75
2019-01-11T05:59:35.319Z,94.03
2019-01-11T06:00:32.033Z,94.13
2019-01-11T06:01:27.703Z,93.37
2019-01-11T06:02:22.808Z,92.51
2019-01-11T06:04:37.476Z,93.08
2019-01-11T06:05:33.563Z,92.9
2019-01-11T06:06:30.268Z,92.9
2019-01-11T06:07:24.253Z,92.42
2019-01-11T06:08:18.638Z,92.9
2019-01-11T06:09:19.228Z,92.9
2019-01-11T06:15:17.431Z,93.65
2019-01-11T06:16:17.392Z,92.8
2019-01-11T06:17:17.103Z,92.8
2019-01-11T06:18:14.364Z,94.03
2019-01-11T06:19:18.109Z,96.22
2019-01-11T06:20:14.474Z,95.84
2019-01-11T06:21:28.924Z,94.89
2019-01-11T06:22:24.030Z,93.99
2019-01-11T06:23:26.451Z,93.6
2019-01-11T06:25:20.691Z,93.6
2019-01-11T06:26:14.904Z,93.08
2019-01-11T06:27:10.200Z,92.71
2019-01-11T06:28:04.391Z,92.99
2019-01-11T06:28:57.769Z,93.37
2019-01-11T06:29:53.620Z,93.56
2019-01-11T06:30:49.342Z,94.32
2019-01-11T06:31:42.189Z,94.6
2019-01-11T06:32:36.225Z,93.37
2019-01-11T06:33:33.406Z,94.23
2019-01-11T06:34:33.420Z,95.08
2019-01-11T06:35:29.971Z,94.98
2019-01-11T06:36:24.010Z,95.17
2019-01-11T06:42:17.800Z,93.56
2019-01-11T06:43:13.077Z,93.75
2019-01-11T06:44:08.935Z,94.42
2019-01-11T06:45:09.917Z,94.6
2019-01-11T06:46:05.666Z,94.98
2019-01-11T06:47:02.908Z,93.08
2019-01-11T06:47:56.040Z,94.98
2019-01-11T06:48:53.940Z,95.36
2019-01-11T06:49:46.936Z,95.08
2019-01-11T06:51:00.631Z,94.65
2019-01-11T06:52:03.754Z,94.27
2019-01-11T06:53:57.546Z,92.75
2019-01-11T06:56:13.242Z,92.75
2019-01-11T06:57:16.041Z,93.04
2019-01-11T07:00:04.755Z,91.89
2019-01-11T07:01:26.316Z,92.18
2019-01-11T07:02:26.102Z,92.56
2019-01-11T07:03:36.759Z,91.89
2019-01-11T07:04:31.841Z,91.61
2019-01-11T07:07:10.116Z,90.66
2019-01-11T07:08:06.984Z,90.37
2019-01-11T07:09:06.926Z,90.85
2019-01-11T07:11:21.796Z,91.23
2019-01-11T07:12:23.170Z,90.19
2019-01-11T07:13:22.059Z,90.85
2019-01-11T07:14:17.430Z,91.13
2019-01-11T07:15:18.956Z,91.52
2019-01-11T07:17:58.643Z,90.7
2019-01-11T07:20:05.335Z,90.04
2019-01-11T07:21:09.568Z,89.75
2019-01-11T07:22:20.087Z,90.04
2019-01-11T07:23:36.618Z,89.85
2019-01-11T07:25:52.913Z,89.37
2019-01-11T07:26:53.323Z,89.75
2019-01-11T07:27:47.730Z,90.52
2019-01-11T07:30:29.588Z,89.94
2019-01-11T07:34:10.473Z,90.52
2019-01-11T07:35:13.054Z,90.52
2019-01-11T07:36:05.841Z,89.75
2019-01-11T07:36:58.937Z,90.42
2019-01-11T07:37:58.603Z,90.23
2019-01-11T07:38:53.057Z,90.52
2019-01-11T07:39:50.208Z,90.33
2019-01-11T07:40:49.877Z,91.08
2019-01-11T07:41:46.682Z,92.22
2019-01-11T07:42:40.902Z,92.41
2019-01-11T07:43:36.835Z,91.37
2019-01-11T07:44:33.120Z,90.42
2019-01-11T07:45:28.929Z,90.8
2019-01-11T07:46:30.034Z,90.33
2019-01-11T07:47:29.232Z,91.08
2019-01-11T07:48:28.684Z,91.37
2019-01-11T07:49:24.074Z,91.28
2019-01-11T07:50:49.346Z,90.89
2019-01-11T07:51:50.700Z,89.94
2019-01-11T07:53:06.375Z,90.23
2019-01-11T07:56:46.006Z,90.7
2019-01-11T07:57:41.385Z,91.37
2019-01-11T07:58:37.488Z,91.33
2019-01-11T07:59:33.636Z,91.52
2019-01-11T08:02:41.835Z,92.66
2019-01-11T08:03:55.706Z,93.79
2019-01-11T08:04:55.215Z,92.75
2019-01-11T08:05:48.945Z,92.94
2019-01-11T08:06:55.954Z,93.18
2019-01-11T08:07:53.568Z,91.75
2019-01-11T08:08:56.561Z,92.03
2019-01-11T08:11:07.739Z,91.94
2019-01-11T08:14:46.813Z,92.89
2019-01-11T08:15:41.589Z,92.99
2019-01-11T08:16:36.011Z,92.99
2019-01-11T08:17:36.298Z,91.94
2019-01-11T08:18:40.261Z,92.7
2019-01-11T08:19:41.713Z,92.89
2019-01-11T08:20:35.617Z,93.37
2019-01-11T08:23:26.008Z,94.32
2019-01-11T08:24:19.302Z,94.6
2019-01-11T08:25:17.097Z,93.65
2019-01-11T08:26:32.694Z,93.08
2019-01-11T08:27:44.142Z,92.7
2019-01-11T08:28:56.184Z,92.7
2019-01-11T08:34:30.179Z,94.13
2019-01-11T08:35:45.334Z,94.98
2019-01-11T08:36:45.828Z,96.22
2019-01-11T08:37:54.771Z,95.36
2019-01-11T08:39:03.890Z,95.17
2019-01-11T08:40:02.017Z,94.42
2019-01-11T08:41:03.427Z,94.51
2019-01-11T08:42:00.511Z,94.51
2019-01-11T08:43:00.275Z,94.51
2019-01-11T08:44:03.303Z,93.46
2019-01-11T08:45:02.382Z,93.27
2019-01-11T08:46:06.912Z,93.94
2019-01-11T08:47:10.631Z,93.75
2019-01-11T08:48:33.716Z,94.13
2019-01-11T08:49:50.418Z,93.65
2019-01-11T08:51:05.033Z,92.8
2019-01-11T08:56:33.488Z,92.61
2019-01-11T08:57:30.928Z,92.8
2019-01-11T09:03:00.387Z,91.75
2019-01-11T09:06:15.482Z,93.18
2019-01-11T09:08:53.399Z,93.75
2019-01-11T09:53:12.366Z,92.27
2019-01-11T09:56:00.856Z,91.13
2019-01-11T09:57:13.509Z,92.46
2019-01-11T09:58:10.426Z,93.41
2019-01-11T09:59:09.638Z,93.79
2019-01-11T10:03:10.280Z,93.13
2019-01-11T10:04:04.292Z,93.04
2019-01-11T10:05:11.464Z,91.99
2019-01-11T10:06:12.497Z,92.84
2019-01-11T10:07:10.736Z,93.51
2019-01-11T10:09:22.104Z,92.18
2019-01-11T10:10:29.330Z,92.27
2019-01-11T10:11:22.595Z,91.61
2019-01-11T10:12:19.113Z,92.08
2019-01-11T10:13:21.604Z,92.27
2019-01-11T10:14:14.948Z,92.27
2019-01-11T10:15:07.446Z,92.08
2019-01-11T10:16:02.045Z,92.46
2019-01-11T10:16:57.278Z,91.42
2019-01-11T10:18:12.996Z,92.08
2019-01-11T10:23:44.501Z,92.27
2019-01-11T10:24:37.733Z,91.61
2019-01-11T10:25:30.153Z,91.75
2019-01-11T10:26:24.545Z,90.99
2019-01-11T10:27:19.707Z,90.61
2019-01-11T10:28:14.167Z,90.32
2019-01-11T10:29:12.173Z,90.8
2019-01-11T10:30:10.046Z,90.28
2019-01-11T11:11:07.141Z,96.74
2019-01-11T11:12:18.037Z,96.74
2019-01-11T11:13:31.913Z,96.22
2019-01-11T11:15:37.892Z,97.93
2019-01-11T13:20:39.888Z,90.94
2019-01-11T13:27:11.118Z,91.03
2019-01-11T13:28:17.935Z,91.13
2019-01-11T13:32:50.307Z,90.65
2019-01-11T13:34:04.247Z,90.46
2019-01-11T13:35:09.889Z,90.46
2019-01-11T13:42:12.496Z,90.56
2019-01-11T13:44:46.122Z,91.65
2019-01-11T13:45:28.469Z,91.51
2019-01-11T13:46:08.914Z,91.51
2019-01-11T13:46:50.165Z,92.36
2019-01-11T13:47:39.727Z,92.36
2019-01-11T13:48:21.774Z,92.27
2019-01-11T13:49:02.593Z,92.65
2019-01-11T13:49:45.627Z,92.08
2019-01-11T13:50:26.438Z,92.65
2019-01-11T13:51:06.803Z,92.84
2019-01-11T13:51:47.306Z,93.51
2019-01-11T13:52:28.938Z,93.6
2019-01-11T13:53:10.481Z,93.79
2019-01-11T13:53:51.335Z,92.84
2019-01-11T13:54:32.734Z,93.03
2019-01-11T13:55:14.697Z,93.32
2019-01-11T13:55:55.316Z,93.32
2019-01-11T13:56:36.412Z,93.79
2019-01-11T13:57:17.790Z,93.79
2019-01-11T13:57:58.205Z,94.17
2019-01-11T13:58:38.573Z,94.56
2019-01-11T13:59:20.158Z,94.56
2019-01-11T14:00:00.603Z,94.37
2019-01-11T14:00:41.704Z,94.56
2019-01-11T14:01:22.815Z,95.03
2019-01-11T14:02:03.476Z,95.12
2019-01-11T14:02:43.811Z,94.84
2019-01-11T14:03:25.284Z,95.22
2019-01-11T14:04:13.005Z,95.12
2019-01-11T14:04:53.558Z,95.51
2019-01-11T14:05:34.708Z,95.51
2019-01-11T14:06:16.289Z,95.6
2019-01-11T14:06:58.204Z,95.98
2019-01-11T14:07:38.643Z,95.98
2019-01-11T14:08:19.607Z,96.84
2019-01-11T14:08:59.926Z,96.94
2019-01-11T14:09:40.484Z,96.46
2019-01-11T14:10:20.834Z,97.41
2019-01-11T14:11:03.231Z,98.46
2019-01-11T14:11:44.581Z,98.08
2019-01-11T14:12:24.973Z,98.55
2019-01-11T14:13:05.622Z,99.03
2019-01-11T14:13:46.277Z,98.74
2019-01-11T14:14:26.613Z,99.13
2019-01-11T14:15:08.208Z,99.69
2019-01-11T14:15:49.112Z,99.65
2019-01-11T14:16:29.505Z,99.89
2019-01-11T14:17:09.915Z,99.99
2019-01-11T14:17:59.256Z,99.99
2019-01-11T14:18:41.824Z,99.89
2019-01-11T14:19:22.806Z,99.98
2019-01-11T14:20:05.469Z,99.99
2019-01-11T14:20:45.975Z,99.99
2019-01-11T14:21:33.661Z,99.99
2019-01-11T14:23:28.547Z,99.99
2019-01-11T14:29:15.971Z,99.99
2019-01-11T14:33:28.292Z,99.99
2019-01-11T14:34:21.474Z,99.99
2019-01-11T14:35:13.876Z,99.99
2019-01-11T14:36:21.523Z,99.99
2019-01-11T14:37:32.053Z,99.99
2019-01-11T14:39:23.071Z,99.99
2019-01-11T14:40:16.207Z,99.99
2019-01-11T14:41:23.376Z,99.99
2019-01-11T14:43:29.116Z,99.99
2019-01-11T14:44:29.434Z,99.99
2019-01-11T14:50:14.326Z,99.99
2019-01-11T14:51:09.495Z,99.99
2019-01-11T14:52:02.855Z,99.99
2019-01-11T14:53:01.812Z,99.99
2019-01-11T14:54:21.380Z,99.99
2019-01-11T14:55:16.057Z,99.99
2019-01-11T14:57:28.248Z,99.99
2019-01-11T14:58:28.765Z,99.99
2019-01-11T14:59:24.705Z,99.99
2019-01-11T15:03:20.060Z,99.99
2019-01-11T15:05:29.763Z,99.99
2019-01-11T15:06:36.343Z,99.99
2019-01-11T15:07:44.683Z,99.99
2019-01-11T15:08:41.628Z,99.99
2019-01-11T15:18:14.109Z,99.99
2019-01-11T15:19:31.239Z,99.99
2019-01-11T15:23:31.838Z,99.99
2019-01-11T15:27:13.990Z,99.98
2019-01-11T15:42:19.475Z,99.99
2019-01-11T15:47:42.296Z,99.99
2019-01-11T15:48:37.960Z,99.99
2019-01-11T15:49:31.060Z,99.99
2019-01-11T15:50:24.450Z,99.99
2019-01-11T15:51:21.147Z,99.99
2019-01-11T15:52:17.072Z,99.99
2019-01-11T16:07:35.012Z,99.65
2019-01-11T16:14:12.090Z,99.32
2019-01-11T16:19:30.078Z,99.18
2019-01-11T16:20:23.144Z,98.99
2019-01-11T16:21:19.529Z,99.94
2019-01-11T16:22:13.461Z,98.89
2019-01-11T16:23:07.213Z,99.99
2019-01-11T16:24:01.142Z,99.65
2019-01-11T16:25:09.189Z,99.46
2019-01-11T16:27:06.652Z,99.94
2019-01-11T16:28:01.397Z,99.55
2019-01-11T16:29:16.744Z,99.55
2019-01-11T16:30:10.428Z,99.99
2019-01-11T16:31:05.259Z,99.99
2019-01-11T16:31:59.510Z,99.99
2019-01-11T16:32:52.701Z,99.99
2019-01-11T17:11:23.382Z,99.99
2019-01-11T17:12:16.687Z,99.99
2019-01-11T17:13:17.351Z,99.99
2019-01-11T17:14:12.462Z,99.99
2019-01-11T17:15:05.854Z,99.99
2019-01-11T17:16:00.016Z,99.99
2019-01-11T17:16:54.641Z,99.99
2019-01-11T17:17:49.567Z,99.99
2019-01-11T17:18:44.404Z,99.99
2019-01-11T17:19:38.565Z,99.99
2019-01-11T17:20:32.729Z,99.99
2019-01-11T17:21:27.306Z,99.99
2019-01-11T17:22:19.579Z,99.99
2019-01-11T17:23:11.587Z,99.99
2019-01-11T17:24:04.937Z,99.99
2019-01-11T17:25:03.790Z,99.99
2019-01-11T17:25:58.832Z,99.99
2019-01-11T17:26:50.871Z,99.99
2019-01-11T17:27:44.219Z,99.99
2019-01-11T17:28:41.140Z,99.99
2019-01-11T17:29:46.922Z,99.99
2019-01-11T17:30:45.905Z,99.99
2019-01-11T17:31:38.349Z,99.99
2019-01-11T17:32:35.272Z,99.99
2019-01-11T17:33:32.517Z,99.99
2019-01-11T17:34:25.808Z,99.99
2019-01-11T17:35:22.453Z,99.99
2019-01-11T17:36:16.075Z,99.99
2019-01-11T17:37:11.869Z,99.99
2019-01-11T17:38:05.082Z,99.99
2019-01-11T17:38:57.141Z,99.99
2019-01-11T17:39:52.857Z,99.99
2019-01-11T17:40:50.598Z,99.99
2019-01-11T17:41:47.288Z,99.99
2019-01-11T17:42:43.238Z,99.99
2019-01-11T17:43:38.281Z,99.99
2019-01-11T17:44:33.618Z,99.99
2019-01-11T17:45:27.432Z,99.99
2019-01-11T17:46:20.299Z,99.99
2019-01-11T17:47:21.445Z,99.99
2019-01-11T17:48:18.029Z,99.99
2019-01-11T17:49:16.090Z,99.99
2019-01-11T17:50:11.191Z,99.99
2019-01-11T17:51:05.726Z,99.99
2019-01-11T17:51:58.900Z,99.99
2019-01-11T17:52:59.676Z,99.99
2019-01-11T17:53:48.471Z,99.99
2019-01-11T17:54:49.858Z,99.99
2019-01-11T17:55:46.156Z,99.99
2019-01-11T17:56:40.223Z,99.94
2019-01-11T17:57:34.954Z,99.99
2019-01-11T17:58:29.377Z,99.99
2019-01-11T17:59:26.244Z,99.99
2019-01-11T18:01:28.856Z,99.94
2019-01-11T18:02:24.990Z,99.55
2019-01-11T18:03:21.463Z,98.85
2019-01-11T18:04:17.879Z,99.22
2019-01-11T18:05:11.066Z,99.13
2019-01-11T18:06:05.733Z,99.32
2019-01-11T18:06:59.527Z,98.94
2019-01-11T18:07:54.976Z,98.99
2019-01-11T18:08:49.305Z,99.99
2019-01-11T18:09:44.320Z,99.99
2019-01-11T18:10:37.915Z,99.7